Time;durP1;ratioP1;P1;durP2;ratioP2;P2;SDS_P1;SDS_P2;PMS_P1;PMS_P2;Temp;Humidity;BMP_temperature;BMP_pressure;BME280_temperature;BME280_humidity;BME280_pressure;Samples;Min_cycle;Max_cycle;Signal;HPM_P1;HPM_P2
2023/08/12 00:00:31;;;;;;;22.30;7.70;;;;;;;14.57;77.16;100917.69;108801;1276;22733;-81
2023/08/12 00:03:21;;;;;;;27.80;10.10;;;;;;;14.54;77.27;100918.56;108785;1276;22658;-81
2023/08/12 00:05:53;;;;;;;27.30;12.80;;;;;;;14.53;77.27;100916.14;108781;1276;22570;-81
2023/08/12 00:08:23;;;;;;;27.40;11.90;;;;;;;14.52;77.24;100918.58;108776;1276;22548;-81
2023/08/12 00:10:54;;;;;;;28.00;11.80;;;;;;;14.48;77.48;100916.23;108701;1276;22570;-80
2023/08/12 00:13:25;;;;;;;30.50;11.80;;;;;;;14.43;77.44;100916.21;108637;1276;22583;-81
2023/08/12 00:15:56;;;;;;;29.30;11.90;;;;;;;14.38;77.73;100921.52;108756;1276;22604;-81
2023/08/12 00:18:27;;;;;;;28.30;12.00;;;;;;;14.34;77.80;100922.52;108770;1276;22580;-81
2023/08/12 00:20:58;;;;;;;29.10;12.60;;;;;;;14.29;78.01;100922.17;108714;1276;22530;-81
2023/08/12 00:23:29;;;;;;;30.20;12.90;;;;;;;14.26;78.12;100926.34;108812;1276;22534;-81
2023/08/12 00:26:01;;;;;;;27.90;11.60;;;;;;;14.26;78.06;100921.30;108718;1276;22520;-81
2023/08/12 00:28:33;;;;;;;29.90;13.00;;;;;;;14.24;78.42;100919.02;108714;1276;25503;-81
2023/08/12 00:31:04;;;;;;;23.40;10.50;;;;;;;14.20;78.45;100925.15;108677;1276;22572;-81
2023/08/12 00:33:34;;;;;;;29.60;11.70;;;;;;;14.18;78.50;100926.48;108610;1265;22553;-81
2023/08/12 00:36:06;;;;;;;29.20;11.30;;;;;;;14.15;78.59;100921.17;108711;1276;23268;-81
2023/08/12 00:38:37;;;;;;;25.40;9.40;;;;;;;14.15;78.54;100916.98;108602;1276;25304;-81
2023/08/12 00:41:08;;;;;;;24.60;10.00;;;;;;;14.13;78.54;100911.65;108117;1276;25426;-80
2023/08/12 00:43:39;;;;;;;22.10;9.40;;;;;;;14.10;78.76;100905.18;108157;1276;22775;-80
2023/08/12 00:46:09;;;;;;;19.90;8.20;;;;;;;14.10;78.79;100901.35;108156;1276;22550;-80
2023/08/12 00:48:41;;;;;;;22.80;8.60;;;;;;;14.07;79.10;100899.02;108050;1276;22545;-81
2023/08/12 00:51:13;;;;;;;17.10;6.60;;;;;;;14.05;79.24;100897.64;108161;1276;25298;-79
2023/08/12 00:53:44;;;;;;;15.90;6.10;;;;;;;14.04;79.20;100894.63;108128;1276;22520;-80
2023/08/12 00:56:18;;;;;;;14.30;5.80;;;;;;;14.04;79.25;100890.95;108159;1276;24261;-80
2023/08/12 00:58:49;;;;;;;17.10;4.90;;;;;;;14.03;79.54;100885.79;108134;1276;22482;-80
2023/08/12 01:01:21;;;;;;;11.70;4.50;;;;;;;14.02;79.68;100883.46;108143;1261;22768;-80
2023/08/12 01:03:52;;;;;;;8.60;3.40;;;;;;;14.00;79.53;100874.50;108030;1276;25313;-81
2023/08/12 01:06:24;;;;;;;12.60;3.30;;;;;;;14.00;79.88;100871.85;108685;1274;25439;-81
2023/08/12 01:08:58;;;;;;;10.20;3.20;;;;;;;13.99;79.80;100869.09;108825;1265;22579;-80
2023/08/12 01:11:35;;;;;;;10.00;3.20;;;;;;;13.98;80.14;100869.06;108747;1276;22571;-81
2023/08/12 01:14:13;;;;;;;9.90;2.60;;;;;;;13.98;80.19;100869.75;108674;1276;23892;-81
2023/08/12 01:16:48;;;;;;;8.70;3.10;;;;;;;13.96;80.33;100872.90;108757;1276;22732;-81
2023/08/12 01:19:30;;;;;;;11.00;3.30;;;;;;;13.94;80.71;100871.80;108684;1276;23004;-80
2023/08/12 01:22:03;;;;;;;10.10;2.90;;;;;;;13.90;80.83;100871.88;108874;1274;24766;-81
2023/08/12 01:24:38;;;;;;;8.50;3.30;;;;;;;13.87;80.89;100869.80;108827;1269;25294;-80
2023/08/12 01:27:11;;;;;;;8.80;3.00;;;;;;;13.85;81.12;100869.20;108828;1276;25977;-80
2023/08/12 01:29:46;;;;;;;10.60;3.30;;;;;;;13.82;81.09;100868.86;108912;1276;22598;-81
2023/08/12 01:32:27;;;;;;;9.40;3.10;;;;;;;13.79;81.37;100865.72;108797;1276;22538;-80
2023/08/12 01:35:08;;;;;;;12.90;3.60;;;;;;;13.76;81.36;100868.67;108538;1276;22581;-81
2023/08/12 01:37:41;;;;;;;9.30;2.90;;;;;;;13.75;81.57;100874.31;108763;1276;22580;-80
2023/08/12 01:40:14;;;;;;;8.60;3.20;;;;;;;13.73;81.51;100871.84;108585;1276;22520;-80
2023/08/12 01:42:47;;;;;;;13.30;3.30;;;;;;;13.72;81.73;100866.30;108656;1276;25598;-81
2023/08/12 01:45:18;;;;;;;7.50;2.90;;;;;;;13.68;81.80;100867.38;108651;1276;23788;-80
2023/08/12 01:47:51;;;;;;;9.60;3.40;;;;;;;13.64;81.96;100870.58;108693;1276;22529;-80
2023/08/12 01:50:22;;;;;;;8.40;3.00;;;;;;;13.62;81.98;100870.05;108643;1276;25424;-80
2023/08/12 01:52:52;;;;;;;9.30;2.80;;;;;;;13.59;82.03;100867.71;108649;1276;22521;-80
2023/08/12 01:55:24;;;;;;;10.30;2.60;;;;;;;13.59;82.12;100867.67;108682;1276;22540;-81
2023/08/12 01:57:54;;;;;;;9.00;3.20;;;;;;;13.58;82.21;100864.42;108722;1269;22456;-81
2023/08/12 02:00:26;;;;;;;9.70;3.40;;;;;;;13.56;82.29;100868.95;108545;1276;22586;-81
2023/08/12 02:02:56;;;;;;;8.80;2.60;;;;;;;13.52;82.31;100870.11;108771;1276;22647;-80
2023/08/12 02:05:27;;;;;;;11.80;3.40;;;;;;;13.50;82.32;100865.42;108903;1276;22989;-81
2023/08/12 02:07:58;;;;;;;11.50;3.30;;;;;;;13.49;82.42;100866.16;108739;1276;22586;-80
2023/08/12 02:10:28;;;;;;;9.20;3.00;;;;;;;13.46;82.48;100862.60;108713;1276;22511;-80
2023/08/12 02:12:59;;;;;;;12.00;3.70;;;;;;;13.44;82.65;100852.77;108810;1254;22531;-81
2023/08/12 02:15:30;;;;;;;10.20;3.10;;;;;;;13.42;82.79;100848.63;108742;1276;22557;-80
2023/08/12 02:18:01;;;;;;;10.00;3.60;;;;;;;13.40;82.72;100844.34;108706;1276;23062;-80
2023/08/12 02:20:32;;;;;;;10.30;2.70;;;;;;;13.40;82.67;100836.64;108780;1276;24201;-81
2023/08/12 02:23:03;;;;;;;9.40;3.60;;;;;;;13.40;82.75;100836.03;108728;1276;22603;-80
2023/08/12 02:25:35;;;;;;;11.50;3.30;;;;;;;13.39;82.98;100829.84;108754;1276;22555;-81
2023/08/12 02:28:07;;;;;;;15.80;3.40;;;;;;;13.39;82.99;100826.52;109189;1276;22546;-81
2023/08/12 02:30:37;;;;;;;9.80;3.10;;;;;;;13.38;83.04;100827.07;109224;1265;22547;-81
2023/08/12 02:33:08;;;;;;;9.90;2.80;;;;;;;13.35;83.19;100834.68;104767;1265;5412538;-81
2023/08/12 02:35:39;;;;;;;9.90;2.60;;;;;;;13.32;83.41;100835.48;108927;1276;23293;-81
2023/08/12 02:38:10;;;;;;;11.30;3.00;;;;;;;13.29;83.37;100839.83;108781;1276;24714;-80
2023/08/12 02:40:41;;;;;;;10.00;3.30;;;;;;;13.26;83.49;100840.29;108671;1270;23901;-81
2023/08/12 02:43:12;;;;;;;7.30;2.60;;;;;;;13.24;83.70;100843.14;108667;1276;23465;-80
2023/08/12 02:45:43;;;;;;;10.30;3.40;;;;;;;13.21;83.73;100840.80;108646;1270;22528;-81
2023/08/12 02:48:14;;;;;;;10.30;3.70;;;;;;;13.20;83.79;100837.30;108602;1276;25307;-80
2023/08/12 02:50:44;;;;;;;9.70;3.30;;;;;;;13.17;83.80;100836.55;108622;1276;22982;-81
2023/08/12 02:53:16;;;;;;;11.20;3.70;;;;;;;13.16;83.90;100837.90;108574;1276;22556;-81
2023/08/12 02:55:47;;;;;;;10.30;4.00;;;;;;;13.14;83.95;100840.42;108697;1272;25246;-81
2023/08/12 02:58:17;;;;;;;9.10;3.20;;;;;;;13.10;83.78;100845.49;108692;1276;25252;-81
2023/08/12 03:00:48;;;;;;;8.50;2.60;;;;;;;13.09;84.11;100847.35;108679;1276;22482;-81
2023/08/12 03:03:19;;;;;;;11.00;3.40;;;;;;;13.07;84.18;100847.27;108708;1272;22519;-80
2023/08/12 03:05:51;;;;;;;10.60;3.40;;;;;;;13.05;84.17;100845.77;108756;1272;22553;-81
2023/08/12 03:08:21;;;;;;;10.00;3.50;;;;;;;13.03;84.28;100840.02;108914;1276;22609;-81
2023/08/12 03:10:58;;;;;;;12.70;3.60;;;;;;;13.02;84.24;100839.08;108803;1276;22539;-80
2023/08/12 03:13:29;;;;;;;8.50;3.60;;;;;;;13.01;84.21;100835.46;108756;1276;27399;-81
2023/08/12 03:16:00;;;;;;;11.30;3.30;;;;;;;13.00;84.39;100836.00;108690;1276;22520;-81
2023/08/12 03:18:31;;;;;;;11.20;3.80;;;;;;;12.97;84.62;100831.11;108680;1276;22573;-81
2023/08/12 03:21:06;;;;;;;11.10;3.40;;;;;;;12.95;84.77;100836.41;108634;1276;22585;-81
2023/08/12 03:23:37;;;;;;;9.60;3.60;;;;;;;12.94;84.74;100840.11;108711;1262;22798;-81
2023/08/12 03:26:07;;;;;;;10.10;3.90;;;;;;;12.93;84.99;100840.56;108790;1276;22852;-81
2023/08/12 03:28:38;;;;;;;13.00;3.70;;;;;;;12.93;85.17;100839.34;108733;1276;22524;-81
2023/08/12 03:31:09;;;;;;;10.30;3.60;;;;;;;12.94;85.21;100837.05;108791;1276;22494;-82
2023/08/12 03:33:40;;;;;;;10.70;3.50;;;;;;;12.93;85.22;100838.83;108838;1276;22543;-81
2023/08/12 03:36:10;;;;;;;9.90;3.60;;;;;;;12.93;85.47;100840.80;108780;1265;22635;-81
2023/08/12 03:38:41;;;;;;;13.60;4.30;;;;;;;12.92;85.54;100836.67;108689;1276;22541;-82
2023/08/12 03:41:13;;;;;;;11.80;3.90;;;;;;;12.92;85.54;100840.80;108633;1276;22483;-82
2023/08/12 03:43:43;;;;;;;9.60;3.80;;;;;;;12.93;85.55;100836.95;108646;1276;25427;-81
2023/08/12 03:46:15;;;;;;;10.80;3.20;;;;;;;12.94;85.80;100841.04;108652;1265;24408;-82
2023/08/12 03:48:55;;;;;;;12.30;4.30;;;;;;;12.94;85.87;100837.92;108657;1276;22494;-81
2023/08/12 03:51:26;;;;;;;13.70;4.80;;;;;;;12.93;86.14;100837.97;108414;1276;22540;-82
2023/08/12 03:53:57;;;;;;;12.50;3.90;;;;;;;12.92;86.14;100839.88;108686;1276;22640;-81
2023/08/12 03:56:28;;;;;;;12.10;4.30;;;;;;;12.91;86.30;100844.65;108707;1273;22570;-81
2023/08/12 03:59:00;;;;;;;13.00;4.80;;;;;;;12.91;86.44;100846.27;108654;1276;25486;-82
2023/08/12 04:01:33;;;;;;;10.00;3.80;;;;;;;12.90;86.59;100846.41;108774;1276;23213;-82
2023/08/12 04:04:04;;;;;;;10.80;4.10;;;;;;;12.88;86.64;100849.22;108797;1276;22540;-82
2023/08/12 04:06:35;;;;;;;10.20;4.00;;;;;;;12.87;86.83;100846.91;108769;1276;22817;-82
2023/08/12 04:09:06;;;;;;;9.50;3.90;;;;;;;12.89;86.73;100843.95;108854;1276;23248;-81
2023/08/12 04:11:38;;;;;;;12.40;4.50;;;;;;;12.90;86.87;100839.34;108942;1269;22516;-82
2023/08/12 04:14:09;;;;;;;10.70;4.30;;;;;;;12.90;87.04;100840.70;108730;1276;22563;-82
2023/08/12 04:16:39;;;;;;;13.10;4.20;;;;;;;12.91;87.20;100839.61;108822;1276;22539;-81
2023/08/12 04:19:10;;;;;;;12.70;4.70;;;;;;;12.93;87.28;100836.13;108706;1276;23343;-81
2023/08/12 04:21:41;;;;;;;10.90;4.40;;;;;;;12.96;87.55;100839.14;108845;1269;24288;-82
2023/08/12 04:24:12;;;;;;;12.00;3.90;;;;;;;12.98;87.67;100839.33;108807;1276;22656;-81
2023/08/12 04:26:42;;;;;;;11.60;4.70;;;;;;;13.02;87.80;100837.82;108824;1276;23317;-81
2023/08/12 04:29:13;;;;;;;12.20;5.40;;;;;;;13.06;88.11;100836.91;108931;1277;23462;-82
2023/08/12 04:31:44;;;;;;;16.60;5.40;;;;;;;13.10;88.36;100840.86;108798;1273;23295;-81
2023/08/12 04:34:15;;;;;;;12.50;6.10;;;;;;;13.14;88.47;100843.38;108855;1276;22557;-82
2023/08/12 04:36:46;;;;;;;11.50;5.50;;;;;;;13.18;88.68;100841.46;108752;1276;22551;-82
2023/08/12 04:39:16;;;;;;;15.10;5.60;;;;;;;13.23;88.94;100841.04;108680;1276;24462;-82
2023/08/12 04:41:47;;;;;;;14.20;5.20;;;;;;;13.28;89.09;100838.46;108692;1276;22487;-82
2023/08/12 04:44:18;;;;;;;12.10;4.80;;;;;;;13.34;89.08;100840.45;108655;1276;22529;-82
2023/08/12 04:46:50;;;;;;;19.00;6.30;;;;;;;13.40;89.25;100837.20;108724;1270;22662;-82
2023/08/12 04:49:31;;;;;;;15.60;6.40;;;;;;;13.45;89.15;100836.38;108555;1265;25058;-81
2023/08/12 04:52:02;;;;;;;18.10;6.00;;;;;;;13.51;89.52;100834.90;108754;1272;22478;-82
2023/08/12 04:54:33;;;;;;;13.50;6.00;;;;;;;13.56;89.54;100831.81;108679;1276;23423;-82
2023/08/12 04:57:05;;;;;;;15.70;5.80;;;;;;;13.63;89.48;100831.11;108803;1276;23901;-83
2023/08/12 05:00:01;;;;;;;13.00;5.00;;;;;;;13.71;89.58;100828.95;108633;1276;22542;-83
2023/08/12 05:02:33;;;;;;;17.90;6.70;;;;;;;13.80;89.60;100834.49;108772;1276;23282;-83
2023/08/12 05:05:04;;;;;;;16.10;7.20;;;;;;;13.87;89.74;100831.27;108777;1276;25917;-83
2023/08/12 05:07:34;;;;;;;18.40;7.20;;;;;;;13.94;89.89;100830.35;108802;1265;24206;-83
2023/08/12 05:10:07;;;;;;;16.30;7.80;;;;;;;14.02;90.02;100833.19;108806;1273;22535;-82
2023/08/12 05:12:38;;;;;;;14.50;7.10;;;;;;;14.10;90.20;100828.54;108685;1276;22512;-82
2023/08/12 05:15:11;;;;;;;18.60;8.40;;;;;;;14.20;90.44;100828.67;108726;1276;22498;-82
2023/08/12 05:17:42;;;;;;;15.10;7.20;;;;;;;14.26;90.35;100829.48;108814;1276;22668;-82
2023/08/12 05:20:14;;;;;;;15.40;8.00;;;;;;;14.35;90.35;100830.66;108733;1276;22537;-83
2023/08/12 05:22:44;;;;;;;14.40;7.40;;;;;;;14.46;90.55;100831.41;108920;1276;22598;-82
2023/08/12 05:25:16;;;;;;;19.20;7.80;;;;;;;14.56;90.75;100832.52;108824;1272;22478;-83
2023/08/12 05:27:47;;;;;;;15.80;7.10;;;;;;;14.67;90.76;100833.40;108763;1276;22624;-82
2023/08/12 05:30:18;;;;;;;16.80;6.90;;;;;;;14.80;90.90;100833.66;108869;1276;22586;-82
2023/08/12 05:32:49;;;;;;;21.80;7.70;;;;;;;14.94;90.72;100830.70;108746;1271;22544;-82
2023/08/12 05:35:20;;;;;;;17.20;7.10;;;;;;;15.08;90.97;100828.38;108760;1276;23581;-81
2023/08/12 05:37:50;;;;;;;12.90;6.50;;;;;;;15.19;90.93;100821.64;108577;1276;22527;-79
2023/08/12 05:40:21;;;;;;;15.10;7.10;;;;;;;15.29;90.63;100821.43;108595;1276;22520;-79
2023/08/12 05:42:52;;;;;;;16.00;7.10;;;;;;;15.41;90.76;100820.67;108531;1276;22549;-79
2023/08/12 05:45:23;;;;;;;20.10;7.10;;;;;;;15.55;90.65;100818.71;108600;1276;22629;-79
2023/08/12 05:47:54;;;;;;;21.20;7.10;;;;;;;15.67;90.45;100814.61;108557;1276;22632;-80
2023/08/12 05:50:24;;;;;;;13.90;6.20;;;;;;;15.79;90.37;100809.32;108638;1271;22508;-80
2023/08/12 05:52:55;;;;;;;15.60;5.70;;;;;;;15.92;90.56;100807.35;108611;1269;23484;-79
2023/08/12 05:55:26;;;;;;;15.90;5.70;;;;;;;16.06;90.38;100804.73;108670;1276;22615;-80
2023/08/12 05:57:57;;;;;;;15.70;6.90;;;;;;;16.19;90.35;100805.16;108793;1269;23368;-80
2023/08/12 06:00:28;;;;;;;12.10;5.20;;;;;;;16.30;90.26;100804.40;109028;1276;22562;-80
2023/08/12 06:02:59;;;;;;;12.60;4.50;;;;;;;16.44;89.78;100803.64;108896;1269;22541;-79
2023/08/12 06:05:30;;;;;;;16.80;5.30;;;;;;;16.57;89.56;100796.08;108801;1268;23240;-79
2023/08/12 06:08:01;;;;;;;13.20;4.90;;;;;;;16.70;89.52;100793.92;108764;1272;25440;-83
2023/08/12 06:10:32;;;;;;;13.20;4.70;;;;;;;16.86;89.49;100795.39;108782;1272;22611;-80
2023/08/12 06:13:02;;;;;;;12.40;4.20;;;;;;;16.98;88.69;100793.22;108707;1266;22528;-80
2023/08/12 06:15:34;;;;;;;13.70;3.70;;;;;;;17.08;88.34;100791.34;108833;1273;22551;-80
2023/08/12 06:18:05;;;;;;;12.70;4.20;;;;;;;17.15;88.08;100792.11;108036;1269;22559;-80
2023/08/12 06:20:37;;;;;;;11.00;3.30;;;;;;;17.24;88.06;100788.77;108749;1276;23660;-80
2023/08/12 06:23:07;;;;;;;9.70;3.10;;;;;;;17.33;87.69;100786.12;108796;1276;24341;-80
2023/08/12 06:25:38;;;;;;;12.40;3.50;;;;;;;17.44;87.71;100786.98;108810;1272;22663;-80
2023/08/12 06:28:10;;;;;;;9.90;2.90;;;;;;;17.56;87.31;100789.83;108905;1276;24308;-81
2023/08/12 06:30:40;;;;;;;9.40;2.90;;;;;;;17.65;86.94;100786.61;108774;1276;22542;-81
2023/08/12 06:33:11;;;;;;;10.10;3.20;;;;;;;17.75;86.75;100784.13;108781;1272;22831;-80
2023/08/12 06:35:42;;;;;;;9.20;3.20;;;;;;;17.84;86.54;100785.29;108832;1275;23335;-80
2023/08/12 06:38:13;;;;;;;9.80;2.90;;;;;;;17.94;86.09;100787.77;108681;1276;25294;-79
2023/08/12 06:40:44;;;;;;;8.10;2.80;;;;;;;18.04;85.93;100788.32;108542;1276;22480;-80
2023/08/12 06:43:15;;;;;;;11.00;3.20;;;;;;;18.16;85.62;100783.40;108536;1276;23813;-80
2023/08/12 06:45:47;;;;;;;6.80;2.50;;;;;;;18.29;85.48;100779.55;108571;1276;22659;-80
2023/08/12 06:48:18;;;;;;;6.40;2.10;;;;;;;18.43;85.21;100777.66;108572;1269;22546;-80
2023/08/12 06:50:56;;;;;;;7.90;2.10;;;;;;;18.59;84.79;100779.73;108554;1276;22539;-80
2023/08/12 06:53:27;;;;;;;9.20;2.30;;;;;;;18.73;84.52;100778.45;108012;1276;23022;-80
2023/08/12 06:55:58;;;;;;;7.00;2.20;;;;;;;18.86;83.79;100778.27;108789;1277;22582;-80
2023/08/12 06:58:29;;;;;;;9.50;1.90;;;;;;;18.99;83.22;100775.66;108744;1277;22596;-80
2023/08/12 07:01:00;;;;;;;8.40;2.30;;;;;;;19.11;82.55;100771.11;108834;1277;23381;-80
2023/08/12 07:03:32;;;;;;;10.10;2.50;;;;;;;19.26;82.24;100772.89;108798;1277;22543;-80
2023/08/12 07:06:04;;;;;;;9.70;2.80;;;;;;;19.38;81.73;100769.37;108727;1272;22569;-80
2023/08/12 07:08:34;;;;;;;8.80;2.30;;;;;;;19.51;81.37;100765.81;108836;1268;59413;-84
2023/08/12 07:11:05;;;;;;;6.30;1.70;;;;;;;19.64;80.99;100767.23;108815;1272;22546;-83
2023/08/12 07:13:36;;;;;;;8.00;1.60;;;;;;;19.76;79.88;100767.56;108834;1276;22555;-83
2023/08/12 07:16:07;;;;;;;4.80;1.50;;;;;;;19.88;79.44;100768.80;108910;1273;24794;-85
2023/08/12 07:18:39;;;;;;;7.00;1.70;;;;;;;19.98;79.48;100771.31;108870;1277;23176;-84
2023/08/12 07:21:10;;;;;;;6.50;1.70;;;;;;;20.09;79.19;100777.11;108868;1276;22623;-83
2023/08/12 07:23:42;;;;;;;5.50;1.40;;;;;;;20.24;78.59;100775.42;108947;1272;22539;-83
2023/08/12 07:26:12;;;;;;;7.80;1.60;;;;;;;20.35;77.78;100774.98;108884;1272;22542;-81
2023/08/12 07:28:44;;;;;;;5.60;1.40;;;;;;;20.47;77.75;100772.36;108675;1268;24441;-81
2023/08/12 07:31:14;;;;;;;8.60;1.60;;;;;;;20.58;77.02;100767.98;108881;1276;22531;-81
2023/08/12 07:33:45;;;;;;;6.30;1.60;;;;;;;20.69;76.47;100772.67;108005;1276;25284;-84
2023/08/12 07:36:16;;;;;;;4.30;1.40;;;;;;;20.79;75.85;100768.91;108717;1277;24330;-80
2023/08/12 07:38:46;;;;;;;9.10;1.80;;;;;;;20.88;75.74;100765.95;108166;1277;22571;-83
2023/08/12 07:41:18;;;;;;;8.10;1.40;;;;;;;20.96;75.46;100766.14;108889;1275;22580;-80
2023/08/12 07:43:48;;;;;;;9.10;1.70;;;;;;;21.07;75.19;100762.86;108892;1269;22557;-78
2023/08/12 07:46:20;;;;;;;5.20;1.50;;;;;;;21.18;75.02;100756.55;107814;1274;22585;-79
2023/08/12 07:48:51;;;;;;;9.40;1.50;;;;;;;21.28;74.66;100756.08;107903;1269;25949;-80
2023/08/12 07:51:21;;;;;;;5.70;1.40;;;;;;;21.34;74.20;100752.31;107913;1273;25192;-81
2023/08/12 07:53:52;;;;;;;6.10;1.40;;;;;;;21.40;73.90;100750.08;107996;1269;25511;-82
2023/08/12 07:56:23;;;;;;;5.20;1.50;;;;;;;21.49;73.45;100752.15;107990;1269;22522;-81
2023/08/12 07:58:54;;;;;;;11.60;1.60;;;;;;;21.56;73.55;100751.40;108792;1269;23366;-85
2023/08/12 08:01:24;;;;;;;6.00;1.20;;;;;;;21.62;72.74;100748.09;108911;1269;22752;-81
2023/08/12 08:03:55;;;;;;;4.60;1.20;;;;;;;21.68;72.73;100743.98;108884;1269;24843;-81
2023/08/12 08:06:27;;;;;;;6.10;1.40;;;;;;;21.78;72.82;100742.59;108909;1269;22585;-81
2023/08/12 08:08:58;;;;;;;5.50;1.40;;;;;;;21.88;72.32;100738.90;109136;1269;22543;-83
2023/08/12 08:11:28;;;;;;;6.00;1.30;;;;;;;21.97;71.85;100740.48;109292;1275;24291;-80
2023/08/12 08:14:00;;;;;;;12.10;1.60;;;;;;;22.07;71.40;100740.38;108902;1272;22699;-81
2023/08/12 08:16:31;;;;;;;4.00;1.30;;;;;;;22.14;70.87;100739.84;108210;1269;23436;-81
2023/08/12 08:19:02;;;;;;;6.40;1.40;;;;;;;22.21;70.63;100738.50;108066;1270;23329;-80
2023/08/12 08:21:33;;;;;;;4.80;1.10;;;;;;;22.28;70.11;100736.39;109055;1270;22556;-81
2023/08/12 08:24:12;;;;;;;10.50;1.80;;;;;;;22.37;70.16;100736.50;108914;1277;22637;-81
2023/08/12 08:26:46;;;;;;;7.10;1.60;;;;;;;22.45;70.06;100736.27;108829;1265;27475;-82
2023/08/12 08:29:18;;;;;;;8.60;1.70;;;;;;;22.55;69.63;100737.58;109120;1277;24046;-84
2023/08/12 08:31:48;;;;;;;9.00;1.40;;;;;;;22.62;69.51;100736.77;109069;1277;23391;-83
2023/08/12 08:34:19;;;;;;;5.60;1.30;;;;;;;22.72;69.50;100735.95;109057;1277;22501;-85
2023/08/12 08:36:51;;;;;;;4.80;1.20;;;;;;;22.82;69.25;100732.73;108986;1277;22535;-84
2023/08/12 08:39:22;;;;;;;8.10;1.50;;;;;;;22.89;68.90;100733.81;109055;1270;23050;-83
2023/08/12 08:41:57;;;;;;;5.30;1.20;;;;;;;22.97;68.33;100730.46;109076;1274;22556;-85
2023/08/12 08:44:32;;;;;;;8.30;1.20;;;;;;;23.04;68.45;100728.64;108865;1269;22531;-84
2023/08/12 08:47:05;;;;;;;3.90;1.00;;;;;;;23.09;67.75;100724.17;108617;1277;22485;-83
2023/08/12 08:49:38;;;;;;;5.30;1.30;;;;;;;23.15;68.13;100721.88;108751;1269;22541;-84
2023/08/12 08:52:09;;;;;;;7.90;1.30;;;;;;;23.25;67.76;100722.20;108648;1273;22559;-83
2023/08/12 08:54:43;;;;;;;7.20;1.20;;;;;;;23.35;67.63;100722.31;108796;1269;22561;-83
2023/08/12 08:57:15;;;;;;;8.50;1.20;;;;;;;23.43;67.16;100719.77;108757;1260;22621;-84
2023/08/12 08:59:45;;;;;;;6.40;1.20;;;;;;;23.51;66.84;100718.52;108823;1272;22545;-85
2023/08/12 09:02:18;;;;;;;7.80;1.00;;;;;;;23.58;66.68;100720.91;109130;1270;24731;-85
2023/08/12 09:04:51;;;;;;;5.20;1.20;;;;;;;23.67;66.54;100718.27;109147;1254;25391;-82
2023/08/12 09:07:25;;;;;;;7.20;1.20;;;;;;;23.78;65.84;100719.14;109475;1276;23406;-84
2023/08/12 09:09:59;;;;;;;3.20;1.20;;;;;;;23.83;65.00;100720.02;109207;1269;22626;-83
2023/08/12 09:12:33;;;;;;;3.30;1.00;;;;;;;23.89;64.93;100722.30;109121;1272;23914;-85
2023/08/12 09:15:06;;;;;;;5.10;1.40;;;;;;;23.95;64.62;100722.54;110402;1269;22241;-84
2023/08/12 09:17:36;;;;;;;3.60;1.00;;;;;;;24.03;64.27;100721.79;110384;1273;22161;-85
2023/08/12 09:20:11;;;;;;;6.10;1.00;;;;;;;24.13;64.15;100719.92;110315;1275;23378;-83
2023/08/12 09:22:42;;;;;;;6.80;0.90;;;;;;;24.26;63.48;100719.14;110351;1275;22310;-83
2023/08/12 09:25:13;;;;;;;5.60;0.70;;;;;;;24.33;62.91;100717.35;110366;1274;22431;-83
2023/08/12 09:27:44;;;;;;;4.90;0.90;;;;;;;24.39;62.57;100716.34;110407;1269;22337;-82
2023/08/12 09:30:15;;;;;;;5.20;0.90;;;;;;;24.46;62.44;100707.44;110404;1275;22230;-88
2023/08/12 09:33:07;;;;;;;3.30;0.80;;;;;;;24.53;62.15;100707.99;110279;1272;22559;-86
2023/08/12 09:35:40;;;;;;;5.80;1.20;;;;;;;24.64;61.81;100711.91;110484;1272;22207;-85
2023/08/12 09:38:14;;;;;;;5.00;1.30;;;;;;;24.71;61.70;100714.33;110458;1276;22200;-87
2023/08/12 09:40:47;;;;;;;3.90;0.90;;;;;;;24.78;61.11;100712.64;110381;1270;23078;-84
2023/08/12 09:43:18;;;;;;;7.00;1.30;;;;;;;24.85;60.56;100706.02;110343;1276;22651;-85
2023/08/12 09:45:48;;;;;;;4.50;1.00;;;;;;;24.88;59.96;100701.30;110429;1272;22171;-84
2023/08/12 09:48:21;;;;;;;4.80;1.00;;;;;;;24.92;60.46;100700.48;110466;1272;22194;-84
2023/08/12 09:50:52;;;;;;;5.00;1.00;;;;;;;24.95;60.02;100694.39;110467;1272;23067;-86
2023/08/12 09:53:24;;;;;;;3.80;0.90;;;;;;;24.99;59.86;100692.60;110480;1276;22195;-85
2023/08/12 09:56:00;;;;;;;4.40;1.00;;;;;;;25.04;59.75;100689.80;110487;1276;22918;-85
2023/08/12 09:58:33;;;;;;;3.00;1.00;;;;;;;25.11;59.43;100688.45;110448;1270;22166;-86
2023/08/12 10:01:05;;;;;;;6.00;0.90;;;;;;;25.17;59.08;100693.08;110422;1272;22228;-86
2023/08/12 10:03:37;;;;;;;6.10;1.00;;;;;;;25.20;58.78;100690.11;110486;1276;22232;-87
2023/08/12 10:06:08;;;;;;;4.90;1.10;;;;;;;25.23;58.75;100684.81;110328;1275;22399;-86
2023/08/12 10:08:40;;;;;;;6.60;0.90;;;;;;;25.28;58.81;100680.69;110482;1272;22166;-87
2023/08/12 10:11:12;;;;;;;4.40;0.90;;;;;;;25.37;58.63;100684.95;110489;1272;23333;-86
2023/08/12 10:13:43;;;;;;;4.30;1.00;;;;;;;25.45;58.57;100689.02;110500;1269;22424;-87
2023/08/12 10:16:15;;;;;;;5.80;1.00;;;;;;;25.52;57.66;100687.27;110508;1276;22168;-84
2023/08/12 10:18:48;;;;;;;4.00;1.10;;;;;;;25.56;58.03;100687.36;110393;1273;22155;-86
2023/08/12 10:21:21;;;;;;;2.90;0.80;;;;;;;25.62;57.52;100678.77;110335;1269;22718;-84
2023/08/12 10:23:54;;;;;;;7.80;1.30;;;;;;;25.68;57.50;100670.77;110322;1270;22338;-83
2023/08/12 10:26:25;;;;;;;3.90;1.10;;;;;;;25.73;57.37;100669.50;110348;1269;22277;-83
2023/08/12 10:28:56;;;;;;;5.00;1.00;;;;;;;25.78;56.77;100667.83;110287;1272;22351;-86
2023/08/12 10:31:29;;;;;;;5.50;0.90;;;;;;;25.83;56.41;100663.39;110444;1276;22218;-85
2023/08/12 10:34:00;;;;;;;5.10;1.10;;;;;;;25.88;56.45;100664.05;110461;1265;22163;-86
2023/08/12 10:36:34;;;;;;;3.30;1.00;;;;;;;25.95;56.31;100662.20;110356;1272;22162;-83
2023/08/12 10:39:09;;;;;;;8.00;1.20;;;;;;;25.98;56.21;100653.08;110361;1276;22152;-84
2023/08/12 10:41:39;;;;;;;4.70;1.00;;;;;;;26.02;55.84;100654.17;110355;1270;22281;-84
2023/08/12 10:44:10;;;;;;;2.60;0.80;;;;;;;26.06;55.47;100648.35;110419;1270;22145;-84
2023/08/12 10:46:41;;;;;;;3.10;0.80;;;;;;;26.10;55.34;100643.05;110393;1270;22992;-83
2023/08/12 10:49:12;;;;;;;5.10;0.90;;;;;;;26.16;55.67;100644.34;110400;1272;22408;-84
2023/08/12 10:51:47;;;;;;;5.20;0.80;;;;;;;26.24;55.26;100639.65;110395;1266;22499;-84
2023/08/12 10:54:19;;;;;;;3.00;1.00;;;;;;;26.33;54.91;100632.41;110411;1276;22381;-84
2023/08/12 10:57:12;;;;;;;6.70;0.90;;;;;;;26.40;54.82;100629.53;110427;1276;22155;-84
2023/08/12 10:59:58;;;;;;;5.40;0.90;;;;;;;26.45;54.58;100631.73;110436;1276;22568;-84
2023/08/12 11:02:34;;;;;;;5.20;0.90;;;;;;;26.51;54.60;100632.94;110424;1276;22191;-84
2023/08/12 11:05:08;;;;;;;4.80;0.80;;;;;;;26.55;54.12;100630.05;110344;1269;22316;-84
2023/08/12 11:07:43;;;;;;;7.60;1.50;;;;;;;26.64;54.05;100630.86;110429;1269;22626;-84
2023/08/12 11:10:16;;;;;;;5.70;0.80;;;;;;;26.74;53.77;100625.68;110410;1268;22158;-84
2023/08/12 11:12:54;;;;;;;4.00;0.80;;;;;;;26.78;53.55;100621.94;110426;1276;22582;-84
2023/08/12 11:15:34;;;;;;;3.80;0.80;;;;;;;26.82;53.56;100623.77;110447;1276;22353;-84
2023/08/12 11:18:07;;;;;;;4.90;0.80;;;;;;;26.85;52.84;100625.21;110450;1274;22384;-85
2023/08/12 11:20:40;;;;;;;3.50;0.70;;;;;;;26.88;52.72;100617.90;110400;1276;22186;-85
2023/08/12 11:23:13;;;;;;;2.30;0.70;;;;;;;26.92;52.73;100619.73;110476;1276;22237;-84
2023/08/12 11:25:45;;;;;;;3.80;0.60;;;;;;;26.98;52.54;100620.25;110447;1276;23116;-84
2023/08/12 11:28:19;;;;;;;3.80;0.80;;;;;;;27.06;52.07;100618.59;110393;1269;22413;-84
2023/08/12 11:30:50;;;;;;;3.10;0.60;;;;;;;27.12;51.77;100614.59;110412;1272;23265;-84
2023/08/12 11:33:22;;;;;;;4.50;0.80;;;;;;;27.16;51.36;100612.89;110351;1269;22398;-83